Embudo, NM (87531)

1:25 AM MDT on September 02, 2014 (GMT -0600)
Velarde | Change Station
CLOSE
Current Station
Personal Weather Station
Location: Velarde, NM
Elevation: 5781 ft
Nearby Weather Stations

Elev 5781 ft 36.16 °N, 105.97 °W | Updated 3 minutes ago

Clear
Clear
68.2 °F
Feels Like 68.2 °F
N
7.0
Wind Variable Wind from NE
Gusts 10.0 mph

Today
High -- | Low -- °F
--% Chance of Precip.
Yesterday
High -- | Low -- °F
Precip. -- in
6:36 AM 7:30 PM
Waxing Crescent, 48% visible
Pressure 30.23 in
Visibility 10.0 miles
Clouds Clear
Dew Point 31 °F
Humidity 25%
Rainfall 0.00 in
Snow Depth Not available.
UV 0 out of 12
Pollen 8.90 out of 12
Air Quality Not available.
Flu Activity Not available.
METAR KLAM 020715Z AUTO 26006KT 10SM CLR 20/M02 A3023 RMK AO2 T01991016

More Conditions Fewer Conditions

Pressure 30.23 in
Visibility 10.0 miles
Clouds Clear
Dew Point 31 °F
Humidity 25%
Rainfall 0.00 in
Snow Depth Not available.
UV 0 out of 12
Pollen 8.90 out of 12
Air Quality Not available.
Flu Activity Not available.
METAR KLAM 020715Z AUTO 26006KT 10SM CLR 20/M02 A3023 RMK AO2 T01991016

More Conditions Fewer Conditions

10-Day Weather Forecast

Almanac

Astronomy

Sep. 02, 2014 Rise Set
Actual Time 6:36 AM MDT 7:30 PM MDT
Civil Twilight 6:10 AM MDT 7:56 PM MDT
Nautical Twilight 5:39 AM MDT 8:27 PM MDT
Astronomical Twilight 5:07 AM MDT 8:59 PM MDT
Moon 2:10 PM MDT No Moon Set
Length of Visible Light 13h 46m
Length of Day
12h 53m
Tomorrow will be 2m 13s shorter.
Waxing Crescent, 48% of the Moon is Illuminated
Today
Waxing Crescent
Sep 2
First Quarter
Sep 8
Full
Sep 15
Last Quarter
Sep 24
New

Today's Extremes

State Highs State Lows

Community

WunderPhotos

Upload Photos

1,749,589 photos uploaded!

WunderBlogs® & News

Nearby

Snow Depth

Station Depth Elevation
Gallegos Peak 0 in 9800 ft
Quemazon 1 in 9500 ft
Santa Fe 1 in 11445 ft
Bateman 0 in 9300 ft
Wesner Springs 3 in 11120 ft

Earthquake Activity

City Distance Mag. Time & Date
Trinidad, Colorado 86 miles 2.7 4:20 AM MDT
2014-08-31
Minimum magnitude displayed is 2.5.

Coastal Water Temperatures

Place Temperature
No Stations Reporting

Nearby Weather Stations